sensor_id;sensor_type;location;lat;lon;timestamp;temperature;humidity
9373;DHT22;10838;52.350;9.790;2022-07-12T00:00:46;14.90;93.10
9373;DHT22;10838;52.350;9.790;2022-07-12T00:03:12;14.80;93.10
9373;DHT22;10838;52.350;9.790;2022-07-12T00:05:40;14.80;93.10
9373;DHT22;10838;52.350;9.790;2022-07-12T00:08:07;14.80;93.10
9373;DHT22;10838;52.350;9.790;2022-07-12T00:10:33;14.80;93.10
9373;DHT22;10838;52.350;9.790;2022-07-12T00:13:00;14.80;93.20
9373;DHT22;10838;52.350;9.790;2022-07-12T00:15:26;14.80;93.20
9373;DHT22;10838;52.350;9.790;2022-07-12T00:17:53;14.80;93.30
9373;DHT22;10838;52.350;9.790;2022-07-12T00:20:20;14.80;93.20
9373;DHT22;10838;52.350;9.790;2022-07-12T00:22:48;14.80;93.30
9373;DHT22;10838;52.350;9.790;2022-07-12T00:25:14;14.80;93.30
9373;DHT22;10838;52.350;9.790;2022-07-12T00:27:41;14.80;93.30
9373;DHT22;10838;52.350;9.790;2022-07-12T00:30:08;14.80;93.40
9373;DHT22;10838;52.350;9.790;2022-07-12T00:32:35;14.90;93.40
9373;DHT22;10838;52.350;9.790;2022-07-12T00:35:01;14.90;93.40
9373;DHT22;10838;52.350;9.790;2022-07-12T00:37:28;14.90;93.50
9373;DHT22;10838;52.350;9.790;2022-07-12T00:39:56;14.90;93.50
9373;DHT22;10838;52.350;9.790;2022-07-12T00:42:23;14.90;93.50
9373;DHT22;10838;52.350;9.790;2022-07-12T00:44:50;15.00;93.60
9373;DHT22;10838;52.350;9.790;2022-07-12T00:47:25;15.00;93.60
9373;DHT22;10838;52.350;9.790;2022-07-12T00:49:54;15.00;93.60
9373;DHT22;10838;52.350;9.790;2022-07-12T00:52:21;15.00;93.60
9373;DHT22;10838;52.350;9.790;2022-07-12T00:54:49;15.00;93.70
9373;DHT22;10838;52.350;9.790;2022-07-12T00:57:17;15.00;93.70
9373;DHT22;10838;52.350;9.790;2022-07-12T00:59:43;15.10;93.70
9373;DHT22;10838;52.350;9.790;2022-07-12T01:02:10;15.10;93.80
9373;DHT22;10838;52.350;9.790;2022-07-12T01:04:37;15.10;93.80
9373;DHT22;10838;52.350;9.790;2022-07-12T01:07:04;15.10;93.80
9373;DHT22;10838;52.350;9.790;2022-07-12T01:09:31;15.10;93.80
9373;DHT22;10838;52.350;9.790;2022-07-12T01:11:57;15.20;93.90
9373;DHT22;10838;52.350;9.790;2022-07-12T01:14:26;15.20;93.90
9373;DHT22;10838;52.350;9.790;2022-07-12T01:16:52;15.20;93.90
9373;DHT22;10838;52.350;9.790;2022-07-12T01:19:20;15.20;93.90
9373;DHT22;10838;52.350;9.790;2022-07-12T01:21:48;15.20;94.00
9373;DHT22;10838;52.350;9.790;2022-07-12T01:24:17;15.30;94.00
9373;DHT22;10838;52.350;9.790;2022-07-12T01:26:44;15.30;94.00
9373;DHT22;10838;52.350;9.790;2022-07-12T01:29:12;15.30;94.00
9373;DHT22;10838;52.350;9.790;2022-07-12T01:31:39;15.30;94.00
9373;DHT22;10838;52.350;9.790;2022-07-12T01:34:06;15.30;94.10
9373;DHT22;10838;52.350;9.790;2022-07-12T01:36:33;15.30;94.10
9373;DHT22;10838;52.350;9.790;2022-07-12T01:39:00;15.30;94.10
9373;DHT22;10838;52.350;9.790;2022-07-12T01:41:28;15.40;94.10
9373;DHT22;10838;52.350;9.790;2022-07-12T01:43:55;15.40;94.20
9373;DHT22;10838;52.350;9.790;2022-07-12T01:46:21;15.40;94.10
9373;DHT22;10838;52.350;9.790;2022-07-12T01:48:48;15.40;94.10
9373;DHT22;10838;52.350;9.790;2022-07-12T01:51:14;15.40;94.20
9373;DHT22;10838;52.350;9.790;2022-07-12T01:53:41;15.50;94.20
9373;DHT22;10838;52.350;9.790;2022-07-12T01:56:07;15.50;94.20
9373;DHT22;10838;52.350;9.790;2022-07-12T01:58:36;15.50;94.20
9373;DHT22;10838;52.350;9.790;2022-07-12T02:01:03;15.50;94.20
9373;DHT22;10838;52.350;9.790;2022-07-12T02:03:34;15.50;94.20
9373;DHT22;10838;52.350;9.790;2022-07-12T02:06:00;15.50;94.20
9373;DHT22;10838;52.350;9.790;2022-07-12T02:08:27;15.50;94.30
9373;DHT22;10838;52.350;9.790;2022-07-12T02:10:53;15.60;94.30
9373;DHT22;10838;52.350;9.790;2022-07-12T02:13:20;15.60;94.30
9373;DHT22;10838;52.350;9.790;2022-07-12T02:15:48;15.60;94.30
9373;DHT22;10838;52.350;9.790;2022-07-12T02:18:14;15.60;94.30
9373;DHT22;10838;52.350;9.790;2022-07-12T02:20:41;15.60;94.30
9373;DHT22;10838;52.350;9.790;2022-07-12T02:23:07;15.60;94.30
9373;DHT22;10838;52.350;9.790;2022-07-12T02:25:34;15.60;94.40
9373;DHT22;10838;52.350;9.790;2022-07-12T02:28:00;15.60;94.40
9373;DHT22;10838;52.350;9.790;2022-07-12T02:30:27;15.60;94.40
9373;DHT22;10838;52.350;9.790;2022-07-12T02:32:55;15.70;94.40
9373;DHT22;10838;52.350;9.790;2022-07-12T02:35:21;15.70;94.40
9373;DHT22;10838;52.350;9.790;2022-07-12T02:37:48;15.70;94.40
9373;DHT22;10838;52.350;9.790;2022-07-12T02:40:15;15.70;94.50
9373;DHT22;10838;52.350;9.790;2022-07-12T02:42:59;15.70;94.50
9373;DHT22;10838;52.350;9.790;2022-07-12T02:45:26;15.70;94.50
9373;DHT22;10838;52.350;9.790;2022-07-12T02:47:52;15.70;94.50
9373;DHT22;10838;52.350;9.790;2022-07-12T02:50:20;15.70;94.60
9373;DHT22;10838;52.350;9.790;2022-07-12T02:52:47;15.80;94.50
9373;DHT22;10838;52.350;9.790;2022-07-12T02:55:13;15.80;94.60
9373;DHT22;10838;52.350;9.790;2022-07-12T02:57:40;15.80;94.60
9373;DHT22;10838;52.350;9.790;2022-07-12T03:00:08;15.80;94.60
9373;DHT22;10838;52.350;9.790;2022-07-12T03:02:34;15.80;94.60
9373;DHT22;10838;52.350;9.790;2022-07-12T03:05:02;15.80;94.60
9373;DHT22;10838;52.350;9.790;2022-07-12T03:07:30;15.80;94.60
9373;DHT22;10838;52.350;9.790;2022-07-12T03:09:56;15.80;94.60
9373;DHT22;10838;52.350;9.790;2022-07-12T03:12:24;15.90;94.70
9373;DHT22;10838;52.350;9.790;2022-07-12T03:14:50;15.90;94.60
9373;DHT22;10838;52.350;9.790;2022-07-12T03:17:17;15.90;94.70
9373;DHT22;10838;52.350;9.790;2022-07-12T03:19:44;15.90;94.70
9373;DHT22;10838;52.350;9.790;2022-07-12T03:22:10;15.90;94.70
9373;DHT22;10838;52.350;9.790;2022-07-12T03:24:38;15.90;94.70
9373;DHT22;10838;52.350;9.790;2022-07-12T03:27:05;15.90;94.70
9373;DHT22;10838;52.350;9.790;2022-07-12T03:29:31;15.90;94.70
9373;DHT22;10838;52.350;9.790;2022-07-12T03:31:58;16.00;94.70
9373;DHT22;10838;52.350;9.790;2022-07-12T03:34:25;16.00;94.70
9373;DHT22;10838;52.350;9.790;2022-07-12T03:36:52;16.00;94.80
9373;DHT22;10838;52.350;9.790;2022-07-12T03:39:18;16.00;94.80
9373;DHT22;10838;52.350;9.790;2022-07-12T03:41:46;16.00;94.80
9373;DHT22;10838;52.350;9.790;2022-07-12T03:44:13;16.00;94.80
9373;DHT22;10838;52.350;9.790;2022-07-12T03:46:39;16.00;94.80
9373;DHT22;10838;52.350;9.790;2022-07-12T03:49:06;16.00;94.80
9373;DHT22;10838;52.350;9.790;2022-07-12T03:51:33;16.00;94.80
9373;DHT22;10838;52.350;9.790;2022-07-12T03:53:59;16.00;94.80
9373;DHT22;10838;52.350;9.790;2022-07-12T03:56:26;16.00;94.80
9373;DHT22;10838;52.350;9.790;2022-07-12T03:59:11;16.10;94.80
9373;DHT22;10838;52.350;9.790;2022-07-12T04:01:38;16.10;94.80
9373;DHT22;10838;52.350;9.790;2022-07-12T04:04:04;16.10;94.80
9373;DHT22;10838;52.350;9.790;2022-07-12T04:06:31;16.10;94.80
9373;DHT22;10838;52.350;9.790;2022-07-12T04:08:57;16.10;94.80
9373;DHT22;10838;52.350;9.790;2022-07-12T04:11:24;16.10;94.90
9373;DHT22;10838;52.350;9.790;2022-07-12T04:13:51;16.20;94.90
9373;DHT22;10838;52.350;9.790;2022-07-12T04:16:19;16.10;94.90
9373;DHT22;10838;52.350;9.790;2022-07-12T04:18:45;16.20;94.90
9373;DHT22;10838;52.350;9.790;2022-07-12T04:21:12;16.20;94.90
9373;DHT22;10838;52.350;9.790;2022-07-12T04:23:39;16.20;94.90
9373;DHT22;10838;52.350;9.790;2022-07-12T04:26:05;16.20;94.90
9373;DHT22;10838;52.350;9.790;2022-07-12T04:28:32;16.30;94.90
9373;DHT22;10838;52.350;9.790;2022-07-12T04:30:59;16.30;94.90
9373;DHT22;10838;52.350;9.790;2022-07-12T04:33:27;16.30;94.90
9373;DHT22;10838;52.350;9.790;2022-07-12T04:35:53;16.30;94.90
9373;DHT22;10838;52.350;9.790;2022-07-12T04:38:20;16.30;94.90
9373;DHT22;10838;52.350;9.790;2022-07-12T04:40:46;16.40;94.90
9373;DHT22;10838;52.350;9.790;2022-07-12T04:43:13;16.40;94.90
9373;DHT22;10838;52.350;9.790;2022-07-12T04:45:39;16.40;94.90
9373;DHT22;10838;52.350;9.790;2022-07-12T04:48:09;16.40;94.90
9373;DHT22;10838;52.350;9.790;2022-07-12T04:50:37;16.50;95.00
9373;DHT22;10838;52.350;9.790;2022-07-12T04:53:03;16.40;94.90
9373;DHT22;10838;52.350;9.790;2022-07-12T04:55:30;16.50;94.90
9373;DHT22;10838;52.350;9.790;2022-07-12T04:57:57;16.50;94.90
9373;DHT22;10838;52.350;9.790;2022-07-12T05:00:23;16.50;94.90
9373;DHT22;10838;52.350;9.790;2022-07-12T05:02:50;16.60;94.90
9373;DHT22;10838;52.350;9.790;2022-07-12T05:05:16;16.60;94.90
9373;DHT22;10838;52.350;9.790;2022-07-12T05:07:44;16.60;94.90
9373;DHT22;10838;52.350;9.790;2022-07-12T05:10:11;16.60;94.90
9373;DHT22;10838;52.350;9.790;2022-07-12T05:12:37;16.60;94.80
9373;DHT22;10838;52.350;9.790;2022-07-12T05:15:05;16.70;94.80
9373;DHT22;10838;52.350;9.790;2022-07-12T05:17:32;16.70;94.90
9373;DHT22;10838;52.350;9.790;2022-07-12T05:19:59;16.70;94.80
9373;DHT22;10838;52.350;9.790;2022-07-12T05:22:26;16.70;94.80
9373;DHT22;10838;52.350;9.790;2022-07-12T05:24:54;16.70;94.80
9373;DHT22;10838;52.350;9.790;2022-07-12T05:27:20;16.80;94.80
9373;DHT22;10838;52.350;9.790;2022-07-12T05:29:47;16.80;94.70
9373;DHT22;10838;52.350;9.790;2022-07-12T05:32:13;16.90;94.70
9373;DHT22;10838;52.350;9.790;2022-07-12T05:34:40;16.90;94.70
9373;DHT22;10838;52.350;9.790;2022-07-12T05:37:06;16.90;94.60
9373;DHT22;10838;52.350;9.790;2022-07-12T05:39:33;17.00;94.60
9373;DHT22;10838;52.350;9.790;2022-07-12T05:42:01;17.00;94.60
9373;DHT22;10838;52.350;9.790;2022-07-12T05:44:28;17.00;94.50
9373;DHT22;10838;52.350;9.790;2022-07-12T05:46:54;17.00;94.50
9373;DHT22;10838;52.350;9.790;2022-07-12T05:49:21;17.10;94.50
9373;DHT22;10838;52.350;9.790;2022-07-12T05:51:48;17.10;94.40
9373;DHT22;10838;52.350;9.790;2022-07-12T05:54:32;17.20;94.30
9373;DHT22;10838;52.350;9.790;2022-07-12T05:57:00;17.20;94.30
9373;DHT22;10838;52.350;9.790;2022-07-12T05:59:26;17.20;94.20
9373;DHT22;10838;52.350;9.790;2022-07-12T06:01:54;17.30;94.20
9373;DHT22;10838;52.350;9.790;2022-07-12T06:04:21;17.30;94.10
9373;DHT22;10838;52.350;9.790;2022-07-12T06:06:47;17.50;94.10
9373;DHT22;10838;52.350;9.790;2022-07-12T06:09:14;17.50;94.00
9373;DHT22;10838;52.350;9.790;2022-07-12T06:11:40;17.70;93.90
9373;DHT22;10838;52.350;9.790;2022-07-12T06:14:08;18.00;93.80
9373;DHT22;10838;52.350;9.790;2022-07-12T06:16:35;18.20;93.70
9373;DHT22;10838;52.350;9.790;2022-07-12T06:19:01;18.40;93.60
9373;DHT22;10838;52.350;9.790;2022-07-12T06:21:28;18.60;93.60
9373;DHT22;10838;52.350;9.790;2022-07-12T06:23:54;18.70;93.50
9373;DHT22;10838;52.350;9.790;2022-07-12T06:26:21;18.70;93.50
9373;DHT22;10838;52.350;9.790;2022-07-12T06:28:47;18.80;93.40
9373;DHT22;10838;52.350;9.790;2022-07-12T06:31:15;18.80;93.40
9373;DHT22;10838;52.350;9.790;2022-07-12T06:33:42;18.80;93.30
9373;DHT22;10838;52.350;9.790;2022-07-12T06:36:09;18.80;93.30
9373;DHT22;10838;52.350;9.790;2022-07-12T06:38:35;18.80;93.20
9373;DHT22;10838;52.350;9.790;2022-07-12T06:41:02;18.80;93.10
9373;DHT22;10838;52.350;9.790;2022-07-12T06:43:28;18.90;93.10
9373;DHT22;10838;52.350;9.790;2022-07-12T06:45:55;18.90;93.10
9373;DHT22;10838;52.350;9.790;2022-07-12T06:48:23;19.00;93.10
9373;DHT22;10838;52.350;9.790;2022-07-12T06:50:50;19.10;93.10
9373;DHT22;10838;52.350;9.790;2022-07-12T06:53:16;19.10;93.10
9373;DHT22;10838;52.350;9.790;2022-07-12T06:55:43;19.20;93.00
9373;DHT22;10838;52.350;9.790;2022-07-12T06:58:10;19.20;93.00
9373;DHT22;10838;52.350;9.790;2022-07-12T07:00:36;19.20;92.90
9373;DHT22;10838;52.350;9.790;2022-07-12T07:03:05;19.20;92.90
9373;DHT22;10838;52.350;9.790;2022-07-12T07:05:33;19.20;92.90
9373;DHT22;10838;52.350;9.790;2022-07-12T07:07:59;19.30;92.90
9373;DHT22;10838;52.350;9.790;2022-07-12T07:10:26;19.30;92.90
9373;DHT22;10838;52.350;9.790;2022-07-12T07:12:53;19.40;92.80
9373;DHT22;10838;52.350;9.790;2022-07-12T07:15:19;19.40;92.70
9373;DHT22;10838;52.350;9.790;2022-07-12T07:17:46;19.40;92.70
9373;DHT22;10838;52.350;9.790;2022-07-12T07:20:13;19.50;92.70
9373;DHT22;10838;52.350;9.790;2022-07-12T07:22:41;19.70;92.60
9373;DHT22;10838;52.350;9.790;2022-07-12T07:25:08;19.90;92.50
9373;DHT22;10838;52.350;9.790;2022-07-12T07:27:34;20.20;92.50
9373;DHT22;10838;52.350;9.790;2022-07-12T07:30:01;20.50;92.40
9373;DHT22;10838;52.350;9.790;2022-07-12T07:32:45;20.80;92.30
9373;DHT22;10838;52.350;9.790;2022-07-12T07:35:11;21.10;92.20
9373;DHT22;10838;52.350;9.790;2022-07-12T07:37:38;21.30;92.20
9373;DHT22;10838;52.350;9.790;2022-07-12T07:40:07;21.50;92.10
9373;DHT22;10838;52.350;9.790;2022-07-12T07:42:34;21.60;92.00
9373;DHT22;10838;52.350;9.790;2022-07-12T07:45:01;21.70;91.90
9373;DHT22;10838;52.350;9.790;2022-07-12T07:47:28;21.70;91.90
9373;DHT22;10838;52.350;9.790;2022-07-12T07:49:55;21.80;91.90
9373;DHT22;10838;52.350;9.790;2022-07-12T07:52:22;22.00;91.90
9373;DHT22;10838;52.350;9.790;2022-07-12T07:54:48;22.30;91.80
9373;DHT22;10838;52.350;9.790;2022-07-12T07:57:16;22.50;91.80
9373;DHT22;10838;52.350;9.790;2022-07-12T07:59:43;22.70;91.70
9373;DHT22;10838;52.350;9.790;2022-07-12T08:02:11;23.00;91.70
9373;DHT22;10838;52.350;9.790;2022-07-12T08:04:37;23.10;91.50
9373;DHT22;10838;52.350;9.790;2022-07-12T08:07:04;23.30;91.50
9373;DHT22;10838;52.350;9.790;2022-07-12T08:09:30;23.40;91.40
9373;DHT22;10838;52.350;9.790;2022-07-12T08:11:57;23.50;91.30
9373;DHT22;10838;52.350;9.790;2022-07-12T08:14:25;23.50;91.30
9373;DHT22;10838;52.350;9.790;2022-07-12T08:16:51;23.50;91.30
9373;DHT22;10838;52.350;9.790;2022-07-12T08:19:18;23.50;91.20
9373;DHT22;10838;52.350;9.790;2022-07-12T08:21:44;23.60;91.20
9373;DHT22;10838;52.350;9.790;2022-07-12T08:24:11;23.80;91.10
9373;DHT22;10838;52.350;9.790;2022-07-12T08:26:38;24.00;91.00
9373;DHT22;10838;52.350;9.790;2022-07-12T08:29:05;24.20;91.00
9373;DHT22;10838;52.350;9.790;2022-07-12T08:31:33;24.30;90.90
9373;DHT22;10838;52.350;9.790;2022-07-12T08:33:59;24.40;90.80
9373;DHT22;10838;52.350;9.790;2022-07-12T08:36:26;24.60;90.80
9373;DHT22;10838;52.350;9.790;2022-07-12T08:38:53;24.70;90.70
9373;DHT22;10838;52.350;9.790;2022-07-12T08:41:19;24.90;90.60
9373;DHT22;10838;52.350;9.790;2022-07-12T08:43:46;25.00;90.60
9373;DHT22;10838;52.350;9.790;2022-07-12T08:46:13;25.10;90.50
9373;DHT22;10838;52.350;9.790;2022-07-12T08:48:42;25.30;90.50
9373;DHT22;10838;52.350;9.790;2022-07-12T08:51:11;25.40;90.50
9373;DHT22;10838;52.350;9.790;2022-07-12T08:53:38;25.50;90.40
9373;DHT22;10838;52.350;9.790;2022-07-12T08:56:07;25.70;90.30
9373;DHT22;10838;52.350;9.790;2022-07-12T08:58:33;25.80;90.30
9373;DHT22;10838;52.350;9.790;2022-07-12T09:01:00;25.90;90.20
9373;DHT22;10838;52.350;9.790;2022-07-12T09:03:27;26.10;90.10
9373;DHT22;10838;52.350;9.790;2022-07-12T09:05:57;26.10;90.20
9373;DHT22;10838;52.350;9.790;2022-07-12T09:08:26;26.30;90.10
9373;DHT22;10838;52.350;9.790;2022-07-12T09:10:55;26.40;90.00
9373;DHT22;10838;52.350;9.790;2022-07-12T09:13:50;26.50;90.00
9373;DHT22;10838;52.350;9.790;2022-07-12T09:16:18;26.60;89.80
9373;DHT22;10838;52.350;9.790;2022-07-12T09:18:46;26.70;89.70
9373;DHT22;10838;52.350;9.790;2022-07-12T09:21:25;26.80;89.70
9373;DHT22;10838;52.350;9.790;2022-07-12T09:23:53;26.90;89.60
9373;DHT22;10838;52.350;9.790;2022-07-12T09:26:20;27.10;89.30
9373;DHT22;10838;52.350;9.790;2022-07-12T09:28:49;27.20;89.50
9373;DHT22;10838;52.350;9.790;2022-07-12T09:31:15;27.20;89.20
9373;DHT22;10838;52.350;9.790;2022-07-12T09:33:59;27.30;89.10
9373;DHT22;10838;52.350;9.790;2022-07-12T09:36:54;27.40;88.80
9373;DHT22;10838;52.350;9.790;2022-07-12T09:39:22;27.50;88.70
9373;DHT22;10838;52.350;9.790;2022-07-12T09:41:49;27.50;88.60
9373;DHT22;10838;52.350;9.790;2022-07-12T09:44:16;27.60;88.30
9373;DHT22;10838;52.350;9.790;2022-07-12T09:46:44;27.60;88.30
9373;DHT22;10838;52.350;9.790;2022-07-12T09:49:12;27.60;88.20
9373;DHT22;10838;52.350;9.790;2022-07-12T09:51:41;27.80;88.00
9373;DHT22;10838;52.350;9.790;2022-07-12T09:54:12;27.90;88.00
9373;DHT22;10838;52.350;9.790;2022-07-12T09:56:42;28.00;88.00
9373;DHT22;10838;52.350;9.790;2022-07-12T09:59:13;28.10;88.00
9373;DHT22;10838;52.350;9.790;2022-07-12T10:01:40;28.20;87.90
9373;DHT22;10838;52.350;9.790;2022-07-12T10:04:08;28.20;87.80
9373;DHT22;10838;52.350;9.790;2022-07-12T10:06:35;28.30;87.70
9373;DHT22;10838;52.350;9.790;2022-07-12T10:09:02;28.40;87.60
9373;DHT22;10838;52.350;9.790;2022-07-12T10:11:30;28.40;87.70
9373;DHT22;10838;52.350;9.790;2022-07-12T10:13:58;28.40;87.70
9373;DHT22;10838;52.350;9.790;2022-07-12T10:16:25;28.40;87.60
9373;DHT22;10838;52.350;9.790;2022-07-12T10:19:23;28.40;87.70
9373;DHT22;10838;52.350;9.790;2022-07-12T10:21:51;28.30;87.60
9373;DHT22;10838;52.350;9.790;2022-07-12T10:24:45;28.30;87.30
9373;DHT22;10838;52.350;9.790;2022-07-12T10:27:32;28.20;87.40
9373;DHT22;10838;52.350;9.790;2022-07-12T10:30:16;28.20;87.40
9373;DHT22;10838;52.350;9.790;2022-07-12T10:32:45;28.10;87.50
9373;DHT22;10838;52.350;9.790;2022-07-12T10:35:13;28.20;87.30
9373;DHT22;10838;52.350;9.790;2022-07-12T10:37:40;28.20;87.40
9373;DHT22;10838;52.350;9.790;2022-07-12T10:40:14;28.20;87.20
9373;DHT22;10838;52.350;9.790;2022-07-12T10:43:16;28.20;87.10
9373;DHT22;10838;52.350;9.790;2022-07-12T10:45:45;28.20;87.00
9373;DHT22;10838;52.350;9.790;2022-07-12T10:48:21;28.20;87.10
9373;DHT22;10838;52.350;9.790;2022-07-12T10:50:57;28.20;87.20
9373;DHT22;10838;52.350;9.790;2022-07-12T10:53:27;28.30;87.10
9373;DHT22;10838;52.350;9.790;2022-07-12T10:56:08;28.30;86.90
9373;DHT22;10838;52.350;9.790;2022-07-12T10:58:38;28.30;86.90
9373;DHT22;10838;52.350;9.790;2022-07-12T11:01:08;28.30;86.70
9373;DHT22;10838;52.350;9.790;2022-07-12T11:03:38;28.40;86.80
9373;DHT22;10838;52.350;9.790;2022-07-12T11:06:06;28.30;86.50
9373;DHT22;10838;52.350;9.790;2022-07-12T11:08:53;28.30;86.40
9373;DHT22;10838;52.350;9.790;2022-07-12T11:11:21;28.30;86.30
9373;DHT22;10838;52.350;9.790;2022-07-12T11:13:49;28.40;86.50
9373;DHT22;10838;52.350;9.790;2022-07-12T11:16:16;28.40;86.40
9373;DHT22;10838;52.350;9.790;2022-07-12T11:18:44;28.50;86.40
9373;DHT22;10838;52.350;9.790;2022-07-12T11:21:11;28.50;86.30
9373;DHT22;10838;52.350;9.790;2022-07-12T11:23:38;28.50;86.10
9373;DHT22;10838;52.350;9.790;2022-07-12T11:26:07;28.50;85.80
9373;DHT22;10838;52.350;9.790;2022-07-12T11:28:34;28.50;85.80
9373;DHT22;10838;52.350;9.790;2022-07-12T11:31:06;28.50;85.90
9373;DHT22;10838;52.350;9.790;2022-07-12T11:33:34;28.60;86.00
9373;DHT22;10838;52.350;9.790;2022-07-12T11:36:04;28.70;86.10
9373;DHT22;10838;52.350;9.790;2022-07-12T11:38:32;28.80;86.10
9373;DHT22;10838;52.350;9.790;2022-07-12T11:41:01;28.90;85.90
9373;DHT22;10838;52.350;9.790;2022-07-12T11:43:29;28.90;85.80
9373;DHT22;10838;52.350;9.790;2022-07-12T11:45:56;28.90;85.70
9373;DHT22;10838;52.350;9.790;2022-07-12T11:48:24;29.00;85.30
9373;DHT22;10838;52.350;9.790;2022-07-12T11:50:52;29.00;85.00
9373;DHT22;10838;52.350;9.790;2022-07-12T11:53:20;29.00;85.10
9373;DHT22;10838;52.350;9.790;2022-07-12T11:55:48;29.00;85.00
9373;DHT22;10838;52.350;9.790;2022-07-12T11:58:16;29.00;85.10
9373;DHT22;10838;52.350;9.790;2022-07-12T12:00:44;29.00;85.30
9373;DHT22;10838;52.350;9.790;2022-07-12T12:03:11;29.00;85.20
9373;DHT22;10838;52.350;9.790;2022-07-12T12:05:39;29.00;85.40
9373;DHT22;10838;52.350;9.790;2022-07-12T12:08:07;29.10;85.20
9373;DHT22;10838;52.350;9.790;2022-07-12T12:10:35;29.10;85.10
9373;DHT22;10838;52.350;9.790;2022-07-12T12:13:02;29.10;85.00
9373;DHT22;10838;52.350;9.790;2022-07-12T12:15:30;29.10;84.90
9373;DHT22;10838;52.350;9.790;2022-07-12T12:17:58;29.10;84.90
9373;DHT22;10838;52.350;9.790;2022-07-12T12:20:26;29.20;84.70
9373;DHT22;10838;52.350;9.790;2022-07-12T12:22:56;29.30;84.80
9373;DHT22;10838;52.350;9.790;2022-07-12T12:25:24;29.30;84.50
9373;DHT22;10838;52.350;9.790;2022-07-12T12:27:55;29.30;84.40
9373;DHT22;10838;52.350;9.790;2022-07-12T12:30:22;29.30;84.30
9373;DHT22;10838;52.350;9.790;2022-07-12T12:32:51;29.30;84.40
9373;DHT22;10838;52.350;9.790;2022-07-12T12:35:19;29.30;84.10
9373;DHT22;10838;52.350;9.790;2022-07-12T12:37:50;29.30;84.00
9373;DHT22;10838;52.350;9.790;2022-07-12T12:40:23;29.30;84.10
9373;DHT22;10838;52.350;9.790;2022-07-12T12:42:50;29.30;84.10
9373;DHT22;10838;52.350;9.790;2022-07-12T12:45:18;29.40;83.90
9373;DHT22;10838;52.350;9.790;2022-07-12T12:47:56;29.40;83.60
9373;DHT22;10838;52.350;9.790;2022-07-12T12:50:36;29.40;83.30
9373;DHT22;10838;52.350;9.790;2022-07-12T12:53:07;29.40;83.20
9373;DHT22;10838;52.350;9.790;2022-07-12T12:55:35;29.40;82.80
9373;DHT22;10838;52.350;9.790;2022-07-12T12:58:02;29.40;82.60
9373;DHT22;10838;52.350;9.790;2022-07-12T13:00:29;29.40;82.80
9373;DHT22;10838;52.350;9.790;2022-07-12T13:02:56;29.40;82.90
9373;DHT22;10838;52.350;9.790;2022-07-12T13:05:24;29.30;83.00
9373;DHT22;10838;52.350;9.790;2022-07-12T13:07:51;29.30;83.10
9373;DHT22;10838;52.350;9.790;2022-07-12T13:10:17;29.40;83.30
9373;DHT22;10838;52.350;9.790;2022-07-12T13:12:45;29.40;83.60
9373;DHT22;10838;52.350;9.790;2022-07-12T13:15:12;29.50;83.80
9373;DHT22;10838;52.350;9.790;2022-07-12T13:17:38;29.50;83.40
9373;DHT22;10838;52.350;9.790;2022-07-12T13:20:06;29.50;83.20
9373;DHT22;10838;52.350;9.790;2022-07-12T13:22:33;29.60;82.60
9373;DHT22;10838;52.350;9.790;2022-07-12T13:25:00;29.60;82.80
9373;DHT22;10838;52.350;9.790;2022-07-12T13:27:27;29.60;82.90
9373;DHT22;10838;52.350;9.790;2022-07-12T13:29:55;29.60;82.90
9373;DHT22;10838;52.350;9.790;2022-07-12T13:32:22;29.60;82.80
9373;DHT22;10838;52.350;9.790;2022-07-12T13:34:50;29.60;83.00
9373;DHT22;10838;52.350;9.790;2022-07-12T13:37:17;29.60;83.20
9373;DHT22;10838;52.350;9.790;2022-07-12T13:39:43;29.60;83.30
9373;DHT22;10838;52.350;9.790;2022-07-12T13:42:27;29.60;83.50
9373;DHT22;10838;52.350;9.790;2022-07-12T13:44:55;29.60;83.60
9373;DHT22;10838;52.350;9.790;2022-07-12T13:47:22;29.60;83.40
9373;DHT22;10838;52.350;9.790;2022-07-12T13:49:50;29.60;83.50
9373;DHT22;10838;52.350;9.790;2022-07-12T13:52:17;29.60;83.50
9373;DHT22;10838;52.350;9.790;2022-07-12T13:54:44;29.60;83.40
9373;DHT22;10838;52.350;9.790;2022-07-12T13:57:11;29.60;83.00
9373;DHT22;10838;52.350;9.790;2022-07-12T13:59:38;29.60;83.00
9373;DHT22;10838;52.350;9.790;2022-07-12T14:02:06;29.60;82.80
9373;DHT22;10838;52.350;9.790;2022-07-12T14:04:33;29.60;82.70
9373;DHT22;10838;52.350;9.790;2022-07-12T14:07:00;29.60;82.70
9373;DHT22;10838;52.350;9.790;2022-07-12T14:09:27;29.60;82.60
9373;DHT22;10838;52.350;9.790;2022-07-12T14:11:53;29.60;82.50
9373;DHT22;10838;52.350;9.790;2022-07-12T14:14:20;29.60;82.40
9373;DHT22;10838;52.350;9.790;2022-07-12T14:17:12;29.60;82.60
9373;DHT22;10838;52.350;9.790;2022-07-12T14:19:39;29.60;82.70
9373;DHT22;10838;52.350;9.790;2022-07-12T14:22:05;29.60;82.60
9373;DHT22;10838;52.350;9.790;2022-07-12T14:24:32;29.60;82.60
9373;DHT22;10838;52.350;9.790;2022-07-12T14:26:59;29.60;82.70
9373;DHT22;10838;52.350;9.790;2022-07-12T14:29:25;29.60;82.80
9373;DHT22;10838;52.350;9.790;2022-07-12T14:31:52;29.60;83.10
9373;DHT22;10838;52.350;9.790;2022-07-12T14:34:22;29.60;82.90
9373;DHT22;10838;52.350;9.790;2022-07-12T14:36:49;29.70;82.70
9373;DHT22;10838;52.350;9.790;2022-07-12T14:39:16;29.70;82.50
9373;DHT22;10838;52.350;9.790;2022-07-12T14:41:42;29.70;82.70
9373;DHT22;10838;52.350;9.790;2022-07-12T14:44:09;29.70;83.00
9373;DHT22;10838;52.350;9.790;2022-07-12T14:46:35;29.70;83.00
9373;DHT22;10838;52.350;9.790;2022-07-12T14:49:03;29.70;82.90
9373;DHT22;10838;52.350;9.790;2022-07-12T14:51:31;29.70;82.80
9373;DHT22;10838;52.350;9.790;2022-07-12T14:53:58;29.70;83.00
9373;DHT22;10838;52.350;9.790;2022-07-12T14:56:24;29.70;82.90
9373;DHT22;10838;52.350;9.790;2022-07-12T14:58:51;29.70;83.20
9373;DHT22;10838;52.350;9.790;2022-07-12T15:01:18;29.70;82.90
9373;DHT22;10838;52.350;9.790;2022-07-12T15:03:44;29.80;83.00
9373;DHT22;10838;52.350;9.790;2022-07-12T15:06:11;29.80;82.80
9373;DHT22;10838;52.350;9.790;2022-07-12T15:08:39;29.80;82.90
9373;DHT22;10838;52.350;9.790;2022-07-12T15:11:06;29.80;83.20
9373;DHT22;10838;52.350;9.790;2022-07-12T15:13:32;29.80;83.20
9373;DHT22;10838;52.350;9.790;2022-07-12T15:15:59;29.80;83.30
9373;DHT22;10838;52.350;9.790;2022-07-12T15:18:25;29.80;83.30
9373;DHT22;10838;52.350;9.790;2022-07-12T15:20:52;29.80;83.30
9373;DHT22;10838;52.350;9.790;2022-07-12T15:23:18;29.80;83.30
9373;DHT22;10838;52.350;9.790;2022-07-12T15:25:46;29.80;83.30
9373;DHT22;10838;52.350;9.790;2022-07-12T15:28:13;29.80;83.50
9373;DHT22;10838;52.350;9.790;2022-07-12T15:30:40;29.80;83.60
9373;DHT22;10838;52.350;9.790;2022-07-12T15:33:06;29.80;83.60
9373;DHT22;10838;52.350;9.790;2022-07-12T15:35:34;29.80;83.40
9373;DHT22;10838;52.350;9.790;2022-07-12T15:38:01;29.80;83.30
9373;DHT22;10838;52.350;9.790;2022-07-12T15:40:27;29.80;83.50
9373;DHT22;10838;52.350;9.790;2022-07-12T15:42:55;29.80;83.50
9373;DHT22;10838;52.350;9.790;2022-07-12T15:45:22;29.80;83.50
9373;DHT22;10838;52.350;9.790;2022-07-12T15:47:48;29.80;83.50
9373;DHT22;10838;52.350;9.790;2022-07-12T15:50:15;29.80;83.70